Time;durP1;ratioP1;P1;durP2;ratioP2;P2;SDS_P1;SDS_P2;PMS_P1;PMS_P2;Temp;Humidity;BMP_temperature;BMP_pressure;BME280_temperature;BME280_humidity;BME280_pressure;Samples;Min_cycle;Max_cycle;Signal;HPM_P1;HPM_P2
2020/12/14 00:00:57;;;;;;;32.97;20.00;;;;;;;3.69;84.62;98596.53;4938038;29;20039;-64
2020/12/14 00:03:23;;;;;;;34.40;20.10;;;;;;;3.72;83.82;98590.63;4937124;29;20521;-64
2020/12/14 00:05:48;;;;;;;30.70;19.30;;;;;;;3.65;84.27;98604.91;4937681;29;20039;-64
2020/12/14 00:08:13;;;;;;;30.00;18.33;;;;;;;3.73;83.98;98594.84;4943964;28;20038;-64
2020/12/14 00:10:39;;;;;;;33.83;19.40;;;;;;;3.71;84.22;98599.03;4957004;28;20023;-64
2020/12/14 00:13:04;;;;;;;36.10;21.90;;;;;;;3.74;83.91;98601.59;4967774;28;20197;-64
2020/12/14 00:15:29;;;;;;;30.27;19.23;;;;;;;3.78;84.09;98605.88;4976296;28;20038;-64
2020/12/14 00:17:55;;;;;;;33.60;20.47;;;;;;;3.74;84.33;98607.53;4975343;28;20042;-64
2020/12/14 00:20:20;;;;;;;32.60;20.03;;;;;;;3.79;84.00;98610.94;4966216;28;20027;-63
2020/12/14 00:22:45;;;;;;;27.80;18.80;;;;;;;3.81;84.38;98610.97;4955738;29;20033;-63
2020/12/14 00:25:11;;;;;;;33.87;19.23;;;;;;;3.77;84.12;98621.91;4955859;28;20306;-63
2020/12/14 00:27:36;;;;;;;33.17;20.17;;;;;;;3.80;84.18;98621.94;4956886;29;20031;-63
2020/12/14 00:30:03;;;;;;;26.83;19.40;;;;;;;3.85;84.21;98620.28;4960002;28;20058;-63
2020/12/14 00:32:28;;;;;;;33.10;21.40;;;;;;;3.79;84.44;98612.63;4976445;28;20060;-63
2020/12/14 00:34:53;;;;;;;32.20;18.23;;;;;;;3.87;84.63;98616.06;4957900;28;20178;-63
2020/12/14 00:37:20;;;;;;;27.20;18.27;;;;;;;3.96;84.60;98619.53;4975279;28;20105;-63
2020/12/14 00:39:45;;;;;;;35.27;20.67;;;;;;;3.87;84.56;98632.13;4975445;28;20035;-63
2020/12/14 00:42:11;;;;;;;32.03;19.43;;;;;;;3.87;84.29;98629.59;4973437;28;20363;-63
2020/12/14 00:44:36;;;;;;;29.47;20.07;;;;;;;3.93;84.52;98631.34;4974409;28;20034;-64
2020/12/14 00:47:01;;;;;;;30.27;18.13;;;;;;;3.99;84.45;98636.44;4950432;28;20031;-64
2020/12/14 00:49:27;;;;;;;29.33;18.90;;;;;;;4.03;84.34;98635.66;4938614;29;20082;-64
2020/12/14 00:51:53;;;;;;;33.37;19.40;;;;;;;3.97;84.76;98635.59;4944952;28;20070;-63
2020/12/14 00:54:18;;;;;;;33.33;19.67;;;;;;;4.05;84.72;98632.28;4936702;28;20115;-63
2020/12/14 00:56:44;;;;;;;28.90;17.77;;;;;;;4.07;84.55;98635.66;4936157;29;20040;-63
2020/12/14 00:59:09;;;;;;;31.27;18.40;;;;;;;4.02;84.79;98641.56;4969196;28;20109;-62
2020/12/14 01:01:35;;;;;;;29.67;17.17;;;;;;;4.09;84.05;98645.81;4974394;28;20034;-64
2020/12/14 01:04:00;;;;;;;30.77;18.10;;;;;;;4.17;84.05;98639.09;4974377;28;20046;-64
2020/12/14 01:06:26;;;;;;;30.20;18.50;;;;;;;4.24;84.10;98647.63;4974958;28;20039;-63
2020/12/14 01:08:51;;;;;;;31.00;19.53;;;;;;;4.17;84.45;98646.72;4974945;28;20095;-63
2020/12/14 01:11:17;;;;;;;27.60;17.00;;;;;;;4.26;84.19;98651.84;4975098;28;20034;-63
2020/12/14 01:13:45;;;;;;;28.07;17.20;;;;;;;4.28;84.26;98655.25;4973820;28;20047;-64
2020/12/14 01:16:12;;;;;;;29.37;17.80;;;;;;;4.32;84.05;98656.13;4975158;28;20046;-64
2020/12/14 01:18:38;;;;;;;30.00;18.80;;;;;;;4.33;84.04;98655.28;4955696;28;20031;-63
2020/12/14 01:21:06;;;;;;;29.20;18.73;;;;;;;4.32;84.28;98661.19;4951244;28;20090;-63
2020/12/14 01:23:32;;;;;;;34.33;18.80;;;;;;;4.29;84.53;98662.00;4956344;28;20035;-63
2020/12/14 01:25:57;;;;;;;30.93;19.30;;;;;;;4.30;84.38;98665.41;4946704;28;20040;-63
2020/12/14 01:28:23;;;;;;;29.60;19.97;;;;;;;4.33;84.56;98673.06;4940739;28;20106;-63
2020/12/14 01:30:48;;;;;;;28.93;18.93;;;;;;;4.38;84.30;98669.69;4952526;28;20066;-63
2020/12/14 01:33:13;;;;;;;31.53;19.60;;;;;;;4.37;84.50;98670.53;4957986;28;20055;-63
2020/12/14 01:35:39;;;;;;;29.80;17.27;;;;;;;4.39;84.31;98676.47;4955390;29;20019;-63
2020/12/14 01:38:04;;;;;;;30.27;17.53;;;;;;;4.32;84.52;98681.50;4959703;29;20031;-63
2020/12/14 01:40:30;;;;;;;26.70;15.23;;;;;;;4.42;84.05;98678.16;4963329;28;20023;-64
2020/12/14 01:42:55;;;;;;;29.53;17.37;;;;;;;4.43;84.28;98679.88;4978904;28;20448;-63
2020/12/14 01:45:21;;;;;;;24.97;17.07;;;;;;;4.46;83.60;98680.72;4977177;28;20026;-63
2020/12/14 01:47:49;;;;;;;25.90;16.07;;;;;;;4.46;83.94;98684.97;4979096;28;20113;-63
2020/12/14 01:50:16;;;;;;;24.57;16.40;;;;;;;4.48;83.88;98675.69;4965746;28;20372;-63
2020/12/14 01:52:43;;;;;;;24.43;15.47;;;;;;;4.55;84.25;98685.88;4939676;29;20059;-63
2020/12/14 01:55:18;;;;;;;26.07;16.03;;;;;;;4.49;84.20;98674.84;4921848;28;20016;-62
2020/12/14 01:57:43;;;;;;;23.70;15.73;;;;;;;4.53;83.89;98668.94;4959449;29;20063;-63
2020/12/14 02:00:10;;;;;;;25.33;15.53;;;;;;;4.60;84.44;98668.97;4952854;28;20170;-63
2020/12/14 02:02:36;;;;;;;24.63;16.60;;;;;;;4.58;84.02;98669.81;4941595;28;20032;-63
2020/12/14 02:05:04;;;;;;;30.00;17.33;;;;;;;4.58;83.79;98674.91;4938372;29;20047;-64
2020/12/14 02:07:29;;;;;;;24.27;17.00;;;;;;;4.58;84.08;98672.38;4972264;28;20027;-64
2020/12/14 02:09:55;;;;;;;25.03;15.23;;;;;;;4.65;84.30;98674.06;4978012;28;20037;-63
2020/12/14 02:12:25;;;;;;;23.63;15.10;;;;;;;4.73;83.98;98676.66;4977251;28;20083;-63
2020/12/14 02:14:55;;;;;;;27.80;17.70;;;;;;;4.77;83.89;98676.66;4977939;28;20097;-63
2020/12/14 02:17:22;;;;;;;25.30;18.03;;;;;;;4.75;83.70;98678.38;4977253;28;20031;-63
2020/12/14 02:19:48;;;;;;;28.23;18.57;;;;;;;4.73;84.09;98679.19;4971644;28;20444;-63
2020/12/14 02:22:17;;;;;;;27.23;17.50;;;;;;;4.72;84.00;98677.47;4940703;29;20509;-63
2020/12/14 02:24:45;;;;;;;27.03;17.30;;;;;;;4.73;84.25;98679.19;4958276;29;20063;-63
2020/12/14 02:27:13;;;;;;;26.57;17.90;;;;;;;4.71;84.31;98671.56;4968154;28;20102;-63
2020/12/14 02:29:42;;;;;;;25.17;17.17;;;;;;;4.71;84.30;98676.63;4977491;28;20027;-63
2020/12/14 02:32:11;;;;;;;24.23;15.93;;;;;;;4.73;84.63;98681.72;4976188;28;20117;-63
2020/12/14 02:34:40;;;;;;;22.90;16.00;;;;;;;4.77;84.65;98678.34;4977279;28;20031;-63
2020/12/14 02:37:10;;;;;;;28.23;17.60;;;;;;;4.70;84.54;98686.81;4958675;28;20598;-63
2020/12/14 02:39:39;;;;;;;25.83;16.23;;;;;;;4.68;85.12;98684.25;4939410;29;20103;-63
2020/12/14 02:42:16;;;;;;;22.90;16.33;;;;;;;4.75;84.99;98683.44;4952485;28;20032;-63
2020/12/14 02:44:42;;;;;;;27.37;16.37;;;;;;;4.65;85.35;98686.78;4977036;28;20031;-63
2020/12/14 02:47:08;;;;;;;23.50;15.97;;;;;;;4.71;85.22;98683.44;4976257;28;20110;-63
2020/12/14 02:49:35;;;;;;;25.43;15.27;;;;;;;4.78;85.31;98685.16;4973415;28;20027;-63
2020/12/14 02:52:00;;;;;;;22.33;15.40;;;;;;;4.80;85.01;98683.44;4951997;28;20134;-63
2020/12/14 02:54:26;;;;;;;24.00;14.60;;;;;;;4.83;84.56;98680.94;4938624;29;20477;-63
2020/12/14 02:56:51;;;;;;;22.43;15.63;;;;;;;4.82;84.20;98687.72;4942799;28;20046;-63
2020/12/14 02:59:18;;;;;;;23.80;15.20;;;;;;;4.87;84.35;98688.59;4976977;28;20101;-63
2020/12/14 03:01:43;;;;;;;23.47;15.10;;;;;;;4.86;84.78;98683.47;4976609;28;20106;-63
2020/12/14 03:04:09;;;;;;;27.33;16.47;;;;;;;4.79;84.98;98694.47;4975321;28;20113;-63
2020/12/14 03:06:35;;;;;;;23.97;15.27;;;;;;;4.86;84.85;98691.97;4977472;28;20023;-63
2020/12/14 03:09:00;;;;;;;24.73;15.87;;;;;;;4.86;85.26;98691.09;4976224;28;20440;-63
2020/12/14 03:11:26;;;;;;;25.07;17.33;;;;;;;4.96;85.10;98693.72;4958661;28;20038;-63
2020/12/14 03:13:51;;;;;;;23.83;15.70;;;;;;;4.96;85.01;98695.41;4957050;29;20134;-63
2020/12/14 03:16:17;;;;;;;29.13;17.03;;;;;;;5.03;85.26;98700.50;4941160;28;20449;-63
2020/12/14 03:18:43;;;;;;;23.03;14.70;;;;;;;5.04;85.16;98701.34;4955449;28;20330;-63
2020/12/14 03:21:09;;;;;;;23.70;16.07;;;;;;;5.03;85.07;98705.59;4956092;29;20023;-63
2020/12/14 03:23:34;;;;;;;25.93;15.73;;;;;;;5.05;85.17;98703.88;4956371;28;20345;-63
2020/12/14 03:26:00;;;;;;;23.13;15.70;;;;;;;5.07;85.11;98701.34;4956515;29;20066;-63
2020/12/14 03:28:25;;;;;;;22.77;14.47;;;;;;;5.07;85.32;98704.75;4956644;28;20031;-63
2020/12/14 03:30:52;;;;;;;27.43;17.37;;;;;;;5.03;85.24;98700.50;4956786;29;20082;-63
2020/12/14 03:33:18;;;;;;;22.73;16.60;;;;;;;5.10;84.88;98700.50;4956300;28;20035;-63
2020/12/14 03:35:43;;;;;;;22.40;15.70;;;;;;;5.10;84.90;98703.03;4956851;29;20065;-63
2020/12/14 03:38:09;;;;;;;25.80;15.63;;;;;;;5.08;84.70;98705.59;4956059;28;20059;-63
2020/12/14 03:40:34;;;;;;;24.30;15.27;;;;;;;5.05;84.60;98698.81;4956674;28;20046;-63
2020/12/14 03:42:59;;;;;;;23.90;16.23;;;;;;;5.02;84.65;98692.88;4955895;28;20023;-63
2020/12/14 03:45:25;;;;;;;27.43;16.17;;;;;;;5.09;84.86;98697.16;4956878;29;20041;-63
2020/12/14 03:47:50;;;;;;;22.20;15.43;;;;;;;5.07;85.37;98697.13;4956221;28;20231;-63
2020/12/14 03:50:16;;;;;;;22.23;15.67;;;;;;;5.03;85.18;98700.50;4956392;28;20038;-64
2020/12/14 03:52:41;;;;;;;26.67;16.43;;;;;;;4.98;85.30;98706.41;4955332;28;20069;-63
2020/12/14 03:55:06;;;;;;;23.47;16.30;;;;;;;5.00;85.35;98702.19;4956541;29;20027;-63
2020/12/14 03:57:32;;;;;;;26.97;15.97;;;;;;;5.03;85.25;98700.50;4955448;28;20127;-63
2020/12/14 03:59:57;;;;;;;26.87;16.90;;;;;;;5.05;85.25;98710.66;4956254;28;20089;-63
2020/12/14 04:02:23;;;;;;;25.97;16.87;;;;;;;5.06;85.03;98713.22;4956009;29;20089;-63
2020/12/14 04:04:49;;;;;;;23.03;15.27;;;;;;;5.06;85.41;98708.13;4955486;28;20124;-63
2020/12/14 04:07:15;;;;;;;23.53;15.40;;;;;;;5.06;84.64;98709.81;4956419;28;20027;-63
2020/12/14 04:09:41;;;;;;;21.70;13.57;;;;;;;5.07;84.92;98716.59;4955357;28;20033;-63
2020/12/14 04:12:06;;;;;;;21.80;15.97;;;;;;;5.05;84.78;98723.34;4960418;28;20047;-63
2020/12/14 04:14:32;;;;;;;20.70;14.90;;;;;;;5.01;84.98;98719.94;4974428;28;20018;-63
2020/12/14 04:16:57;;;;;;;23.23;15.13;;;;;;;5.04;85.24;98725.06;4975551;28;20072;-63
2020/12/14 04:19:23;;;;;;;24.57;15.40;;;;;;;5.02;85.37;98723.34;4971285;28;20040;-63
2020/12/14 04:21:51;;;;;;;25.80;16.90;;;;;;;5.05;85.31;98719.13;4956546;29;20034;-63
2020/12/14 04:24:17;;;;;;;25.60;17.13;;;;;;;5.09;84.96;98726.78;4955563;28;20027;-63
2020/12/14 04:26:43;;;;;;;21.67;13.67;;;;;;;5.10;84.47;98726.78;4975762;28;20463;-63
2020/12/14 04:29:08;;;;;;;21.83;15.63;;;;;;;5.07;84.79;98737.78;4974672;28;20031;-63
2020/12/14 04:31:34;;;;;;;22.27;15.07;;;;;;;5.06;84.66;98736.06;4975053;28;20416;-63
2020/12/14 04:34:00;;;;;;;23.33;14.43;;;;;;;5.04;84.47;98732.69;4974504;28;20026;-63
2020/12/14 04:36:26;;;;;;;20.10;13.97;;;;;;;5.07;84.71;98732.69;4941880;28;20034;-63
2020/12/14 04:38:51;;;;;;;23.50;14.87;;;;;;;5.09;84.50;98730.19;4936321;29;20105;-63
2020/12/14 04:41:21;;;;;;;23.33;14.13;;;;;;;5.10;84.49;98744.56;4964695;28;20035;-63
2020/12/14 04:43:49;;;;;;;20.70;14.23;;;;;;;5.05;84.84;98743.69;4974359;28;20031;-63
2020/12/14 04:46:15;;;;;;;21.67;15.73;;;;;;;4.98;84.69;98752.97;4973923;28;20125;-63
2020/12/14 04:48:41;;;;;;;20.50;14.27;;;;;;;4.96;85.00;98763.97;4957940;28;20038;-63
2020/12/14 04:51:07;;;;;;;19.87;14.07;;;;;;;4.96;85.00;98758.91;4952877;28;20470;-63
2020/12/14 04:53:33;;;;;;;20.27;13.50;;;;;;;4.95;84.56;98768.22;4975144;28;20026;-63
2020/12/14 04:56:07;;;;;;;20.37;14.47;;;;;;;5.00;84.46;98770.78;4973501;28;20108;-63
2020/12/14 04:58:33;;;;;;;23.77;15.52;;;;;;;4.90;84.63;98771.56;4974326;28;20106;-63
2020/12/14 05:00:58;;;;;;;23.70;14.00;;;;;;;4.87;85.02;98774.09;4973402;28;20113;-63
2020/12/14 05:03:23;;;;;;;22.43;14.73;;;;;;;4.90;84.84;98780.03;4975383;28;20023;-63
2020/12/14 05:05:57;;;;;;;23.17;15.20;;;;;;;4.96;84.93;98781.75;4965587;28;20452;-63
2020/12/14 05:08:29;;;;;;;23.47;14.23;;;;;;;4.98;85.20;98787.69;4974903;28;20023;-64
2020/12/14 05:10:55;;;;;;;23.67;15.20;;;;;;;4.95;84.81;98783.47;4942695;29;20035;-63
2020/12/14 05:13:28;;;;;;;25.23;14.87;;;;;;;4.99;84.86;98790.25;4934027;29;20061;-63
2020/12/14 05:15:54;;;;;;;22.87;15.20;;;;;;;4.92;84.81;98792.75;4941265;28;20016;-63
2020/12/14 05:18:23;;;;;;;19.33;12.80;;;;;;;4.94;85.01;98796.13;4955659;29;20042;-63
2020/12/14 05:20:59;;;;;;;22.03;14.23;;;;;;;5.02;85.06;98789.41;4954715;28;20058;-63
2020/12/14 05:23:25;;;;;;;21.30;13.80;;;;;;;5.03;84.66;98798.72;4942619;28;20031;-64
2020/12/14 05:25:50;;;;;;;20.87;13.27;;;;;;;4.98;84.52;98806.31;4943416;28;20020;-65
2020/12/14 05:28:16;;;;;;;18.73;12.90;;;;;;;4.96;84.44;98800.41;4954296;28;20027;-64
2020/12/14 05:30:49;;;;;;;24.00;13.90;;;;;;;4.98;84.45;98802.94;4939184;28;20055;-64
2020/12/14 05:33:19;;;;;;;19.07;12.93;;;;;;;4.93;84.64;98802.91;4944795;28;20118;-64
2020/12/14 05:35:45;;;;;;;21.13;14.23;;;;;;;4.98;84.69;98805.47;4949388;28;20031;-64
2020/12/14 05:38:10;;;;;;;19.73;12.43;;;;;;;4.90;84.47;98800.34;4951952;28;20496;-64
2020/12/14 05:40:36;;;;;;;20.17;12.70;;;;;;;4.91;84.36;98809.69;4954951;29;20027;-64
2020/12/14 05:43:13;;;;;;;18.17;11.63;;;;;;;4.96;83.99;98812.25;4955246;29;20034;-64
2020/12/14 05:45:40;;;;;;;20.00;14.00;;;;;;;4.96;84.33;98815.66;4955127;29;20063;-64
2020/12/14 05:48:21;;;;;;;20.30;13.43;;;;;;;4.98;84.30;98810.56;4955307;29;20081;-64
2020/12/14 05:50:51;;;;;;;20.27;13.20;;;;;;;4.99;83.98;98817.34;4955394;28;20035;-64
2020/12/14 05:53:21;;;;;;;19.93;13.17;;;;;;;4.93;84.07;98815.59;4954599;29;20046;-64
2020/12/14 05:55:47;;;;;;;20.70;13.90;;;;;;;4.89;83.96;98813.03;4954818;28;20023;-63
2020/12/14 05:58:16;;;;;;;18.50;12.70;;;;;;;4.95;84.26;98813.09;4954770;29;20032;-62
2020/12/14 06:00:46;;;;;;;18.63;11.57;;;;;;;4.95;84.12;98813.09;4942004;28;20034;-62
2020/12/14 06:03:12;;;;;;;16.93;10.77;;;;;;;4.91;84.30;98812.22;4954230;29;20048;-62
2020/12/14 06:05:37;;;;;;;17.33;12.57;;;;;;;4.88;84.29;98817.25;4958701;28;20059;-62
2020/12/14 06:08:19;;;;;;;20.47;11.40;;;;;;;4.88;84.21;98826.59;4966097;28;20018;-63
2020/12/14 06:10:49;;;;;;;19.33;12.63;;;;;;;4.91;84.03;98827.47;4968561;28;20156;-61
2020/12/14 06:13:21;;;;;;;17.20;11.40;;;;;;;4.89;83.96;98835.91;4937890;29;20095;-61
2020/12/14 06:15:49;;;;;;;22.40;13.20;;;;;;;4.88;83.90;98834.22;4945539;28;20019;-61
2020/12/14 06:18:20;;;;;;;20.07;13.20;;;;;;;4.88;83.80;98835.03;4958421;28;20448;-61
2020/12/14 06:20:46;;;;;;;19.97;12.50;;;;;;;4.89;83.84;98838.44;4954564;28;20452;-62
2020/12/14 06:23:13;;;;;;;22.73;13.90;;;;;;;4.90;84.05;98833.38;4953031;28;20077;-62
2020/12/14 06:25:39;;;;;;;20.67;13.20;;;;;;;4.91;84.24;98835.09;4960689;28;20023;-61
2020/12/14 06:28:30;;;;;;;24.27;14.70;;;;;;;4.95;83.97;98828.31;4957141;29;20031;-61
2020/12/14 06:30:56;;;;;;;21.57;13.60;;;;;;;4.94;84.09;98836.78;4958162;29;20448;-61
2020/12/14 06:33:39;;;;;;;21.90;13.60;;;;;;;4.99;83.83;98830.91;4956637;28;20471;-62
2020/12/14 06:36:14;;;;;;;21.53;14.17;;;;;;;5.01;83.38;98834.28;4958461;29;20027;-62
2020/12/14 06:38:39;;;;;;;20.30;13.27;;;;;;;4.95;83.50;98833.41;4956752;28;20456;-63
2020/12/14 06:41:29;;;;;;;23.20;13.77;;;;;;;5.02;83.84;98843.63;4961587;28;20085;-63
2020/12/14 06:44:07;;;;;;;18.57;13.20;;;;;;;5.00;84.09;98841.91;4962012;28;20062;-62
2020/12/14 06:46:33;;;;;;;21.87;13.00;;;;;;;4.87;84.66;98851.16;4958230;28;20102;-61
2020/12/14 06:49:00;;;;;;;21.40;13.47;;;;;;;4.94;84.69;98847.78;4956929;28;20030;-61
2020/12/14 06:51:26;;;;;;;19.70;12.90;;;;;;;4.94;84.57;98849.47;4957285;29;20123;-61
2020/12/14 06:53:54;;;;;;;23.30;14.20;;;;;;;4.98;84.23;98853.75;4956160;28;20028;-61
2020/12/14 06:56:28;;;;;;;22.80;13.80;;;;;;;5.04;84.06;98848.72;4957291;28;20030;-61
2020/12/14 06:58:55;;;;;;;24.47;13.87;;;;;;;5.03;84.22;98855.47;4956445;29;20101;-62
2020/12/14 07:01:40;;;;;;;22.73;12.70;;;;;;;5.09;84.10;98852.13;4956959;28;20062;-61
2020/12/14 07:04:05;;;;;;;21.33;12.52;;;;;;;5.05;84.06;98858.00;4957095;29;20032;-61
2020/12/14 07:06:32;;;;;;;21.87;13.33;;;;;;;5.08;83.87;98858.06;4956891;28;20090;-62
2020/12/14 07:08:58;;;;;;;23.57;14.03;;;;;;;5.07;84.19;98858.88;4956854;29;20086;-62
2020/12/14 07:11:25;;;;;;;20.37;13.20;;;;;;;5.10;84.31;98863.13;4955625;28;20031;-62
2020/12/14 07:13:52;;;;;;;21.83;13.63;;;;;;;5.12;84.34;98861.47;4974103;28;20081;-63
2020/12/14 07:16:19;;;;;;;26.23;16.10;;;;;;;5.14;84.41;98865.69;4975684;28;20386;-61
2020/12/14 07:18:47;;;;;;;26.20;14.37;;;;;;;5.23;84.20;98864.91;4976626;28;20031;-63
2020/12/14 07:21:14;;;;;;;27.20;15.63;;;;;;;5.24;84.41;98870.00;4957628;28;20050;-62
2020/12/14 07:23:45;;;;;;;27.07;14.77;;;;;;;5.37;84.19;98878.56;4959503;28;20155;-62
2020/12/14 07:26:16;;;;;;;26.10;15.40;;;;;;;5.37;83.23;98871.78;4964483;28;20640;-62
2020/12/14 07:28:49;;;;;;;30.03;15.67;;;;;;;5.35;83.60;98873.44;4974152;28;20023;-62
2020/12/14 07:31:24;;;;;;;26.17;15.70;;;;;;;5.42;83.55;98869.25;4973370;28;20027;-62
2020/12/14 07:33:57;;;;;;;26.13;14.43;;;;;;;5.43;83.96;98870.97;4973866;28;20029;-62
2020/12/14 07:36:25;;;;;;;30.57;16.73;;;;;;;5.37;83.68;98870.94;4973945;28;20027;-62
2020/12/14 07:38:55;;;;;;;31.87;17.87;;;;;;;5.30;84.36;98872.59;4975891;28;20039;-62
2020/12/14 07:41:22;;;;;;;27.17;16.17;;;;;;;5.37;84.33;98878.56;4975100;28;20114;-62
2020/12/14 07:43:56;;;;;;;31.80;18.13;;;;;;;5.36;84.25;98880.25;4958920;28;20030;-62
2020/12/14 07:46:29;;;;;;;26.93;16.27;;;;;;;5.36;84.14;98879.38;4957536;28;20031;-62
2020/12/14 07:49:03;;;;;;;23.63;13.27;;;;;;;5.29;84.41;98881.06;4937556;29;20032;-62
2020/12/14 07:51:30;;;;;;;20.90;13.10;;;;;;;5.37;83.86;98889.56;4959317;28;20027;-62
2020/12/14 07:54:07;;;;;;;20.90;14.03;;;;;;;5.46;83.00;98883.69;4935780;28;20031;-62
2020/12/14 07:57:02;;;;;;;24.23;13.10;;;;;;;5.46;82.97;98888.78;4946457;28;20089;-64
2020/12/14 07:59:29;;;;;;;25.83;13.73;;;;;;;5.50;82.69;98896.44;4942696;28;20035;-62
2020/12/14 08:01:56;;;;;;;22.40;12.40;;;;;;;5.51;83.24;98895.59;4944556;28;20032;-63
2020/12/14 08:04:24;;;;;;;25.60;15.07;;;;;;;5.59;82.83;98894.78;4946418;28;20106;-62
2020/12/14 08:06:51;;;;;;;33.40;17.90;;;;;;;5.62;82.60;98894.78;4948208;28;20036;-61
2020/12/14 08:09:18;;;;;;;32.47;17.53;;;;;;;5.64;83.02;98895.66;4952211;28;20089;-61
2020/12/14 08:11:46;;;;;;;26.73;15.50;;;;;;;5.62;82.81;98894.78;4930452;28;20035;-62
2020/12/14 08:14:14;;;;;;;25.33;15.33;;;;;;;5.79;82.72;98891.47;4944828;28;20038;-62
2020/12/14 08:16:41;;;;;;;23.17;12.90;;;;;;;5.88;81.91;98893.25;4941424;28;20034;-61
2020/12/14 08:19:14;;;;;;;19.07;12.50;;;;;;;5.91;82.29;98894.09;4946348;28;20035;-62
2020/12/14 08:21:40;;;;;;;20.90;11.53;;;;;;;5.94;81.67;98893.28;4938389;28;20549;-61
2020/12/14 08:24:09;;;;;;;16.87;10.73;;;;;;;6.02;81.15;98908.56;4938175;28;20122;-62
2020/12/14 08:26:35;;;;;;;17.90;11.40;;;;;;;5.98;81.43;98908.53;4938170;28;20368;-61
2020/12/14 08:29:01;;;;;;;17.27;10.57;;;;;;;6.05;81.58;98901.78;4939079;28;20051;-62
2020/12/14 08:31:26;;;;;;;13.43;9.13;;;;;;;6.13;80.53;98902.66;4941007;28;20031;-62
2020/12/14 08:33:56;;;;;;;14.87;9.57;;;;;;;6.19;79.78;98900.16;4941064;28;20036;-61
2020/12/14 08:36:23;;;;;;;13.03;8.53;;;;;;;6.22;79.59;98904.38;4942399;28;20106;-61
2020/12/14 08:38:50;;;;;;;13.13;8.80;;;;;;;6.19;79.71;98902.69;4947275;28;20078;-63
2020/12/14 08:41:22;;;;;;;12.87;8.73;;;;;;;6.25;79.24;98905.22;4941198;28;20097;-61
2020/12/14 08:43:49;;;;;;;13.30;8.33;;;;;;;6.19;79.15;98905.22;4940134;28;20032;-61
2020/12/14 08:46:18;;;;;;;12.70;8.93;;;;;;;6.20;79.02;98899.28;4938787;28;20400;-61
2020/12/14 08:48:52;;;;;;;12.13;8.33;;;;;;;6.31;79.33;98901.84;4937355;28;20083;-61
2020/12/14 08:51:32;;;;;;;13.73;8.90;;;;;;;6.41;77.98;98903.56;4949592;28;20118;-60
2020/12/14 08:54:19;;;;;;;14.63;8.80;;;;;;;6.42;78.21;98907.81;4953265;28;20034;-61
2020/12/14 08:56:45;;;;;;;14.43;8.63;;;;;;;6.35;78.35;98911.19;4955411;28;20033;-61
2020/12/14 08:59:17;;;;;;;12.13;8.30;;;;;;;6.33;78.45;98913.72;4955782;28;20444;-61
2020/12/14 09:02:08;;;;;;;15.23;9.07;;;;;;;6.44;78.87;98911.22;4952535;28;20028;-61
2020/12/14 09:04:36;;;;;;;11.00;7.27;;;;;;;6.37;78.82;98899.31;4943122;28;20045;-61
2020/12/14 09:07:04;;;;;;;15.60;10.10;;;;;;;6.24;79.04;98905.22;4947489;28;20401;-61
2020/12/14 09:09:38;;;;;;;15.03;8.43;;;;;;;6.45;78.17;98909.53;4939729;28;20027;-61
2020/12/14 09:12:10;;;;;;;10.60;7.00;;;;;;;6.56;78.45;98915.47;4940772;28;20481;-61
2020/12/14 09:14:36;;;;;;;9.17;7.00;;;;;;;6.48;77.36;98907.84;4943255;28;20110;-60
2020/12/14 09:17:04;;;;;;;14.20;8.37;;;;;;;6.36;77.50;98901.03;4938542;28;20051;-60
2020/12/14 09:19:32;;;;;;;11.60;7.50;;;;;;;6.37;77.56;98900.16;4919950;29;20091;-60
2020/12/14 09:21:59;;;;;;;10.23;6.93;;;;;;;6.38;77.70;98899.31;4944884;28;20027;-60
2020/12/14 09:24:33;;;;;;;9.70;6.80;;;;;;;6.46;77.71;98895.94;4944270;28;20126;-61
2020/12/14 09:27:09;;;;;;;9.63;6.50;;;;;;;6.50;77.37;98895.94;4942847;28;20074;-61
2020/12/14 09:29:36;;;;;;;9.03;5.80;;;;;;;6.52;77.82;98891.72;4940861;28;20453;-61
2020/12/14 09:32:03;;;;;;;7.07;5.20;;;;;;;6.57;77.32;98891.72;4940766;28;20043;-61
2020/12/14 09:34:29;;;;;;;8.10;6.20;;;;;;;6.70;77.49;98881.56;4939788;28;20115;-61
2020/12/14 09:36:57;;;;;;;6.87;4.90;;;;;;;6.72;76.97;98873.88;4938213;28;20424;-60
2020/12/14 09:39:24;;;;;;;9.90;6.23;;;;;;;6.54;76.84;98878.97;4947074;28;20046;-60
2020/12/14 09:41:51;;;;;;;12.23;5.93;;;;;;;6.62;76.65;98873.03;4933950;29;20372;-60
2020/12/14 09:47:39;;;;;;;9.33;6.33;;;;;;;6.86;75.51;98867.94;4950706;28;20101;-63
2020/12/14 09:50:05;;;;;;;12.63;6.93;;;;;;;6.75;76.32;98861.13;4955700;28;20035;-63
2020/12/14 09:52:30;;;;;;;9.77;6.13;;;;;;;6.93;75.21;98856.03;4951054;28;20046;-63
2020/12/14 09:54:55;;;;;;;11.07;6.27;;;;;;;6.97;75.55;98845.00;4949828;28;20051;-63
2020/12/14 09:57:21;;;;;;;13.87;9.13;;;;;;;7.10;74.97;98848.38;4947259;28;20449;-63
2020/12/14 09:59:46;;;;;;;12.07;7.77;;;;;;;7.22;74.80;98848.34;4948332;28;20432;-62
2020/12/14 10:02:12;;;;;;;8.57;6.83;;;;;;;7.35;74.29;98845.75;4943110;28;20027;-63
2020/12/14 10:04:37;;;;;;;11.07;6.97;;;;;;;7.45;73.88;98849.16;4943140;28;20032;-64
2020/12/14 10:07:02;;;;;;;10.37;7.80;;;;;;;7.46;74.05;98847.44;4931535;29;20110;-64
2020/12/14 10:09:28;;;;;;;14.23;9.70;;;;;;;7.49;73.93;98847.44;4953852;28;20114;-66
2020/12/14 10:11:55;;;;;;;12.50;8.67;;;;;;;7.77;74.05;98849.84;4952007;28;20384;-63
2020/12/14 10:14:20;;;;;;;10.00;6.60;;;;;;;7.73;72.58;98845.63;4924416;29;20054;-62
2020/12/14 10:16:48;;;;;;;10.33;6.77;;;;;;;7.91;72.67;98848.94;4945146;28;20421;-63
2020/12/14 10:19:14;;;;;;;7.50;5.90;;;;;;;7.96;72.98;98844.69;4948886;28;20027;-62
2020/12/14 10:21:40;;;;;;;8.53;6.40;;;;;;;7.92;72.64;98850.66;4938215;29;20415;-62
2020/12/14 10:24:05;;;;;;;10.10;6.37;;;;;;;7.82;72.27;98839.63;4952754;28;20019;-62
2020/12/14 10:26:31;;;;;;;10.47;7.17;;;;;;;7.86;72.98;98846.41;4951468;28;20031;-61
2020/12/14 10:28:56;;;;;;;12.90;7.20;;;;;;;7.92;72.51;98843.00;4948431;28;20035;-62
2020/12/14 10:31:21;;;;;;;10.77;6.50;;;;;;;7.88;72.00;98842.16;4930461;29;20404;-62
2020/12/14 10:33:47;;;;;;;11.17;6.97;;;;;;;7.87;72.23;98837.91;4943694;28;20035;-62
2020/12/14 10:36:18;;;;;;;11.03;7.20;;;;;;;7.92;71.93;98843.84;4943179;28;20119;-62
2020/12/14 10:38:44;;;;;;;9.60;6.30;;;;;;;7.93;71.81;98845.56;4945909;28;20031;-62
2020/12/14 10:41:09;;;;;;;8.07;5.83;;;;;;;7.95;71.23;98840.41;4950022;28;20333;-62
2020/12/14 10:43:34;;;;;;;9.10;6.40;;;;;;;8.06;71.68;98833.56;4950040;28;20109;-62
2020/12/14 10:46:00;;;;;;;10.87;7.33;;;;;;;8.12;72.30;98836.06;4952207;28;20024;-62
2020/12/14 10:48:25;;;;;;;8.23;5.80;;;;;;;8.23;71.22;98839.41;4951924;28;20038;-62
2020/12/14 10:50:51;;;;;;;8.73;6.13;;;;;;;8.05;70.83;98830.16;4950404;28;20046;-62
2020/12/14 10:53:16;;;;;;;10.00;5.83;;;;;;;8.16;70.42;98836.03;4946581;28;20114;-62
2020/12/14 10:55:41;;;;;;;11.20;7.13;;;;;;;7.98;71.13;98838.69;4943504;28;20028;-61
2020/12/14 10:58:07;;;;;;;9.83;6.33;;;;;;;8.10;70.03;98837.78;4941684;28;20132;-62
2020/12/14 11:00:33;;;;;;;8.63;6.13;;;;;;;8.08;70.06;98834.38;4946353;28;20123;-62
2020/12/14 11:02:59;;;;;;;8.83;5.23;;;;;;;8.38;69.69;98836.78;4942475;28;20035;-62
2020/12/14 11:05:25;;;;;;;6.67;4.73;;;;;;;8.24;69.44;98828.31;4941687;28;20417;-62
2020/12/14 11:07:50;;;;;;;8.47;5.57;;;;;;;8.43;68.47;98823.97;4939588;28;20118;-62
2020/12/14 11:10:16;;;;;;;7.53;5.60;;;;;;;8.32;68.06;98826.59;4942701;28;20358;-62
2020/12/14 11:12:41;;;;;;;8.03;5.60;;;;;;;8.40;68.76;98824.00;4946694;28;20067;-62
2020/12/14 11:15:07;;;;;;;7.90;4.93;;;;;;;8.42;67.60;98820.56;4946936;28;20042;-62
2020/12/14 11:17:37;;;;;;;6.27;5.63;;;;;;;8.60;67.41;98820.44;4945214;28;20035;-62
2020/12/14 11:20:05;;;;;;;8.03;5.73;;;;;;;8.58;67.89;98823.84;4952037;28;20042;-62
2020/12/14 11:22:31;;;;;;;7.30;6.10;;;;;;;8.70;67.52;98827.16;4943418;28;20043;-62
2020/12/14 11:24:56;;;;;;;8.70;6.23;;;;;;;8.67;67.64;98826.34;4940391;28;20035;-61
2020/12/14 11:27:22;;;;;;;7.87;5.97;;;;;;;8.64;68.38;98816.16;4929172;29;20024;-62
2020/12/14 11:29:47;;;;;;;11.30;6.40;;;;;;;8.73;67.72;98815.22;4939314;28;20024;-60
2020/12/14 11:32:12;;;;;;;6.97;5.97;;;;;;;8.82;66.42;98815.16;4940640;28;20397;-62
2020/12/14 11:34:38;;;;;;;7.07;5.47;;;;;;;8.90;66.77;98803.13;4947465;28;20042;-62